Main page
METAR-TAF:

METAR-TAF

Airports :

Wick, Scotland

Wick Airport

latitude: 58-27N, longitude: 003-05W, elevation: 39 m

Current weather observation

The report was made 23 minutes ago, at 08:50 UTC
Wind 10 kt from the East
Temperature 7°C
Humidity 76%
Pressure 1016 hPa
Visibility 10 km or more
Few clouds at a height of 2000 ft
Scattered clouds at a height of 3200 ft

METAR: EGPC 290850Z 10010KT 9999 FEW020 SCT032 07/03 Q1016

Time: 10:13 (09:13 UTC)

Forecast

The report was made 1 hour and 16 minutes ago, at 07:57 UTC
Forecast valid from 29 at 09 UTC to 29 at 18 UTC
Wind 15 kt from the East
Visibility 10 km or more
Scattered clouds at a height of 2500 ft
Probability 30% :
Temporary
from 29 at 15 UTC to 29 at 18 UTC
Broken clouds at a height of 1200 ft

TAF: EGPC 290757Z 2909/2918 10015KT 9999 SCT025 PROB30 TEMPO 2915/2918 BKN012

Weather observations and forecasts of more than 4000 airports (METAR and TAF reports).

The available stations are represented by yellow and red dots on the map.

Hover mouse over dot to see the name of the station.

Then click to see weather observations and forecasts.

To change the map : click on the green buttons with a black cross to zoom in, on the green button with a dash to zoom out, or on the green arrows for adjacent maps.


METAR-TAF: